createdAt,value
2023-01-31T00:01:37.570Z,2.87
2023-01-31T00:04:11.368Z,2.30
2023-01-31T00:06:43.743Z,2.50
2023-01-31T00:09:12.152Z,2.83
2023-01-31T00:11:39.440Z,2.87
2023-01-31T00:14:07.336Z,2.20
2023-01-31T00:16:34.951Z,2.70
2023-01-31T00:19:02.165Z,2.13
2023-01-31T00:21:30.709Z,2.80
2023-01-31T00:23:58.798Z,2.80
2023-01-31T00:26:30.310Z,2.80
2023-01-31T00:28:58.644Z,2.33
2023-01-31T00:31:27.832Z,2.63
2023-01-31T00:33:55.884Z,2.70
2023-01-31T00:36:31.556Z,2.00
2023-01-31T00:39:00.396Z,2.73
2023-01-31T00:41:28.993Z,1.80
2023-01-31T00:43:55.809Z,3.50
2023-01-31T00:46:23.739Z,2.50
2023-01-31T00:48:51.141Z,2.00
2023-01-31T00:51:18.637Z,2.53
2023-01-31T00:53:45.638Z,2.10
2023-01-31T00:56:14.965Z,2.07
2023-01-31T00:58:42.023Z,2.67
2023-01-31T01:01:13.013Z,2.17
2023-01-31T01:03:41.274Z,2.10
2023-01-31T01:06:10.026Z,2.33
2023-01-31T01:08:38.589Z,2.30
2023-01-31T01:11:17.070Z,2.23
2023-01-31T01:13:44.683Z,2.30
2023-01-31T01:16:16.145Z,2.13
2023-01-31T01:18:44.839Z,2.77
2023-01-31T01:21:14.881Z,2.43
2023-01-31T01:23:42.263Z,2.43
2023-01-31T01:26:21.156Z,2.40
2023-01-31T01:28:49.453Z,2.40
2023-01-31T01:31:17.472Z,2.70
2023-01-31T01:33:45.463Z,2.33
2023-01-31T01:36:17.572Z,2.83
2023-01-31T01:38:45.434Z,2.70
2023-01-31T01:41:13.775Z,2.70
2023-01-31T01:43:50.291Z,2.80
2023-01-31T01:46:35.544Z,2.77
2023-01-31T01:49:14.196Z,3.33
2023-01-31T01:51:43.551Z,2.63
2023-01-31T01:54:15.614Z,2.53
2023-01-31T01:56:45.005Z,2.90
2023-01-31T01:59:28.856Z,3.17
2023-01-31T02:01:56.939Z,4.30
2023-01-31T02:04:28.373Z,3.47
2023-01-31T02:06:55.751Z,3.77
2023-01-31T02:09:46.596Z,3.80
2023-01-31T02:12:14.032Z,4.20
2023-01-31T02:14:42.612Z,3.07
2023-01-31T02:17:18.115Z,3.60
2023-01-31T02:20:26.310Z,4.33
2023-01-31T02:23:14.509Z,4.00
2023-01-31T02:25:47.010Z,3.87
2023-01-31T02:28:23.028Z,3.47
2023-01-31T02:31:10.737Z,3.73
2023-01-31T02:33:47.404Z,3.70
2023-01-31T02:36:26.128Z,4.33
2023-01-31T02:39:01.980Z,3.47
2023-01-31T02:41:37.945Z,4.10
2023-01-31T02:44:54.561Z,3.83
2023-01-31T02:48:00.205Z,4.20
2023-01-31T02:50:47.076Z,4.20
2023-01-31T02:53:55.851Z,4.23
2023-01-31T02:56:28.163Z,4.33
2023-01-31T02:58:59.227Z,4.77
2023-01-31T03:01:31.323Z,4.20
2023-01-31T03:04:04.466Z,5.17
2023-01-31T03:06:33.505Z,4.80
2023-01-31T03:09:21.385Z,5.00
2023-01-31T03:11:58.809Z,4.83
2023-01-31T03:14:31.067Z,4.53
2023-01-31T03:17:33.993Z,5.00
2023-01-31T03:20:05.137Z,4.57
2023-01-31T03:22:40.523Z,5.17
2023-01-31T03:25:10.531Z,5.90
2023-01-31T03:27:40.275Z,5.13
2023-01-31T03:30:16.285Z,6.13
2023-01-31T03:32:57.881Z,5.73
2023-01-31T03:35:29.115Z,5.93
2023-01-31T03:38:15.358Z,4.90
2023-01-31T03:40:49.704Z,5.27
2023-01-31T03:43:17.380Z,5.73
2023-01-31T03:45:57.373Z,4.97
2023-01-31T03:48:29.743Z,5.30
2023-01-31T03:51:03.877Z,5.43
2023-01-31T03:54:07.051Z,6.40
2023-01-31T03:56:55.034Z,5.67
2023-01-31T03:59:29.840Z,6.67
2023-01-31T04:02:00.607Z,5.70
2023-01-31T04:04:40.820Z,6.13
2023-01-31T04:07:07.641Z,5.97
2023-01-31T04:09:34.593Z,5.77
2023-01-31T04:12:02.699Z,6.37
2023-01-31T04:14:29.908Z,6.17
2023-01-31T04:16:56.654Z,5.70
2023-01-31T04:19:23.480Z,7.17
2023-01-31T04:21:50.216Z,6.17
2023-01-31T04:24:16.903Z,6.83
2023-01-31T04:26:43.722Z,7.77
2023-01-31T04:29:10.903Z,6.53
2023-01-31T04:31:38.095Z,7.30
2023-01-31T04:34:04.943Z,7.03
2023-01-31T04:36:32.070Z,7.50
2023-01-31T04:39:00.846Z,6.23
2023-01-31T04:41:27.770Z,6.67
2023-01-31T04:43:54.601Z,6.67
2023-01-31T04:46:21.566Z,7.53
2023-01-31T04:48:48.364Z,6.37
2023-01-31T04:51:15.096Z,6.50
2023-01-31T04:53:45.009Z,5.73
2023-01-31T04:56:11.872Z,6.90
2023-01-31T04:58:38.564Z,6.63
2023-01-31T05:01:05.427Z,7.80
2023-01-31T05:03:32.931Z,6.50
2023-01-31T05:05:59.707Z,6.73
2023-01-31T05:08:26.481Z,7.00
2023-01-31T05:11:04.448Z,6.50
2023-01-31T05:13:32.781Z,6.97
2023-01-31T05:15:59.840Z,7.17
2023-01-31T05:18:26.600Z,7.17
2023-01-31T05:20:53.406Z,8.27
2023-01-31T05:23:20.165Z,6.20
2023-01-31T05:25:50.618Z,6.83
2023-01-31T05:28:17.985Z,6.83
2023-01-31T05:30:45.001Z,7.37
2023-01-31T05:33:12.054Z,7.60
2023-01-31T05:35:39.508Z,7.10
2023-01-31T05:38:06.313Z,7.80
2023-01-31T05:40:33.082Z,7.70
2023-01-31T05:43:01.755Z,7.50
2023-01-31T05:45:29.221Z,6.37
2023-01-31T05:47:57.561Z,7.03
2023-01-31T05:50:24.306Z,8.23
2023-01-31T05:52:55.808Z,6.87
2023-01-31T05:55:23.323Z,7.17
2023-01-31T05:57:50.198Z,7.23
2023-01-31T06:00:17.316Z,7.57
2023-01-31T06:02:44.281Z,7.90
2023-01-31T06:05:11.421Z,7.10
2023-01-31T06:07:38.957Z,7.07
2023-01-31T06:10:08.689Z,7.10
2023-01-31T06:12:36.627Z,6.30
2023-01-31T06:15:04.537Z,6.37
2023-01-31T06:17:31.534Z,6.93
2023-01-31T06:19:58.717Z,7.33
2023-01-31T06:22:25.857Z,8.37
2023-01-31T06:24:52.704Z,6.67
2023-01-31T06:27:19.459Z,5.90
2023-01-31T06:29:46.193Z,5.50
2023-01-31T06:32:13.061Z,6.47
2023-01-31T06:34:39.880Z,5.80
2023-01-31T06:37:10.627Z,6.20
2023-01-31T06:39:37.493Z,6.47
2023-01-31T06:42:04.574Z,6.37
2023-01-31T06:44:33.158Z,6.13
2023-01-31T06:47:03.156Z,5.50
2023-01-31T06:49:30.406Z,6.73
2023-01-31T06:51:57.254Z,7.07
2023-01-31T06:54:24.028Z,6.53
2023-01-31T06:56:50.839Z,5.70
2023-01-31T06:59:17.563Z,6.47
2023-01-31T07:01:44.350Z,6.83
2023-01-31T07:04:11.159Z,6.70
2023-01-31T07:06:37.898Z,5.33
2023-01-31T07:09:04.650Z,6.53
2023-01-31T07:11:31.557Z,5.80
2023-01-31T07:13:58.341Z,5.73
2023-01-31T07:16:26.008Z,5.60
2023-01-31T07:18:54.002Z,6.27
2023-01-31T07:21:21.795Z,5.77
2023-01-31T07:23:48.648Z,5.87
2023-01-31T07:26:15.404Z,6.20
2023-01-31T07:28:42.129Z,7.07
2023-01-31T07:31:13.838Z,6.73
2023-01-31T07:33:41.120Z,6.13
2023-01-31T07:36:08.757Z,6.77
2023-01-31T07:38:35.799Z,6.93
2023-01-31T07:41:04.273Z,6.40
2023-01-31T07:43:32.298Z,6.37
2023-01-31T07:45:59.128Z,6.40
2023-01-31T07:48:26.283Z,5.97
2023-01-31T07:51:03.225Z,6.07
2023-01-31T07:53:33.071Z,6.27
2023-01-31T07:56:14.087Z,6.37
2023-01-31T07:58:42.063Z,5.83
2023-01-31T08:01:39.858Z,6.30
2023-01-31T08:04:20.600Z,6.40
2023-01-31T08:06:50.822Z,6.43
2023-01-31T08:09:17.699Z,5.20
2023-01-31T08:11:44.456Z,5.30
2023-01-31T08:14:11.248Z,5.10
2023-01-31T08:16:38.644Z,6.20
2023-01-31T08:19:05.539Z,5.77
2023-01-31T08:21:32.228Z,5.57
2023-01-31T08:23:59.363Z,5.83
2023-01-31T08:26:26.107Z,5.50
2023-01-31T08:28:56.253Z,5.30
2023-01-31T08:31:25.866Z,5.63
2023-01-31T08:33:53.542Z,5.67
2023-01-31T08:36:23.314Z,4.90
2023-01-31T08:38:51.251Z,5.53
2023-01-31T08:41:19.527Z,5.03
2023-01-31T08:43:57.923Z,4.93
2023-01-31T08:46:30.950Z,5.10
2023-01-31T08:48:58.623Z,4.63
2023-01-31T08:51:25.414Z,4.20
2023-01-31T08:53:52.602Z,5.57
2023-01-31T08:56:21.421Z,5.17
2023-01-31T08:58:48.597Z,4.60
2023-01-31T09:01:17.636Z,4.27
2023-01-31T09:03:45.890Z,4.83
2023-01-31T09:06:16.250Z,4.93
2023-01-31T09:08:43.083Z,4.27
2023-01-31T09:11:09.938Z,4.77
2023-01-31T09:13:36.867Z,3.70
2023-01-31T09:16:08.813Z,4.00
2023-01-31T09:18:38.017Z,4.40
2023-01-31T09:21:06.873Z,4.70
2023-01-31T09:23:34.222Z,3.50
2023-01-31T09:26:00.979Z,4.60
2023-01-31T09:28:27.901Z,4.13
2023-01-31T09:30:54.765Z,4.20
2023-01-31T09:33:23.089Z,4.30
2023-01-31T09:35:57.669Z,4.20
2023-01-31T09:38:24.651Z,4.57
2023-01-31T09:40:52.568Z,3.80
2023-01-31T09:43:23.771Z,4.40
2023-01-31T09:45:52.649Z,4.27
2023-01-31T09:48:24.295Z,4.17
2023-01-31T09:50:56.468Z,4.20
2023-01-31T09:53:28.309Z,4.30
2023-01-31T09:56:04.152Z,3.87
2023-01-31T09:58:34.502Z,3.60
2023-01-31T10:01:17.586Z,3.67
2023-01-31T10:04:03.197Z,3.67
2023-01-31T10:06:58.827Z,4.20
2023-01-31T10:09:33.150Z,4.50
2023-01-31T10:12:27.905Z,5.10
2023-01-31T10:15:01.522Z,4.13
2023-01-31T10:17:38.502Z,5.03
2023-01-31T10:20:21.699Z,5.50
2023-01-31T10:23:15.536Z,5.03
2023-01-31T10:25:59.724Z,5.13
2023-01-31T10:28:43.099Z,5.17
2023-01-31T10:31:28.361Z,5.33
2023-01-31T10:34:10.796Z,6.00
2023-01-31T10:36:42.897Z,5.90
2023-01-31T10:39:22.358Z,5.87
2023-01-31T10:42:08.633Z,5.67
2023-01-31T10:44:52.295Z,6.90
2023-01-31T10:47:21.624Z,6.93
2023-01-31T10:49:50.090Z,5.97
2023-01-31T10:52:46.998Z,6.00
2023-01-31T10:55:27.556Z,5.43
2023-01-31T10:57:55.288Z,6.50
2023-01-31T11:00:30.449Z,7.00
2023-01-31T11:02:58.394Z,6.80
2023-01-31T11:05:28.604Z,7.20
2023-01-31T11:08:01.193Z,6.50
2023-01-31T11:10:30.801Z,7.27
2023-01-31T11:13:17.682Z,6.83
2023-01-31T11:15:44.586Z,6.57
2023-01-31T11:18:22.504Z,5.77
2023-01-31T11:20:49.754Z,6.23
2023-01-31T11:23:23.556Z,5.37
2023-01-31T11:25:52.288Z,5.07
2023-01-31T11:28:38.232Z,5.30
2023-01-31T11:31:07.862Z,3.93
2023-01-31T11:33:58.501Z,4.97
2023-01-31T11:36:26.872Z,3.83
2023-01-31T11:38:54.932Z,4.60
2023-01-31T11:41:36.775Z,4.20
2023-01-31T11:44:19.023Z,4.10
2023-01-31T11:46:57.853Z,4.13
2023-01-31T11:49:32.160Z,4.07
2023-01-31T11:52:03.057Z,3.97
2023-01-31T11:54:33.769Z,3.87
2023-01-31T11:57:02.758Z,4.00
2023-01-31T11:59:31.074Z,3.43
2023-01-31T12:02:00.658Z,4.20
2023-01-31T12:04:39.977Z,3.60
2023-01-31T12:07:22.943Z,3.20
2023-01-31T12:09:49.687Z,3.37
2023-01-31T12:12:25.176Z,3.40
2023-01-31T12:14:55.170Z,4.07
2023-01-31T12:17:21.987Z,3.73
2023-01-31T12:20:28.579Z,3.43
2023-01-31T12:23:27.522Z,3.47
2023-01-31T12:26:22.355Z,3.47
2023-01-31T12:29:15.491Z,3.43
2023-01-31T12:31:58.956Z,3.20
2023-01-31T12:35:05.645Z,3.67
2023-01-31T12:37:54.514Z,3.60
2023-01-31T12:40:36.537Z,3.37
2023-01-31T12:43:25.102Z,3.63
2023-01-31T12:46:11.424Z,4.00
2023-01-31T12:48:53.426Z,2.77
2023-01-31T12:51:26.180Z,3.30
2023-01-31T12:54:04.558Z,3.33
2023-01-31T12:56:37.187Z,3.60
2023-01-31T12:59:56.569Z,3.33
2023-01-31T13:02:29.514Z,2.60
2023-01-31T13:05:09.478Z,3.53
2023-01-31T13:07:43.954Z,3.53
2023-01-31T13:10:37.826Z,3.00
2023-01-31T13:13:11.399Z,3.20
2023-01-31T13:15:55.167Z,2.87
2023-01-31T13:18:23.297Z,3.13
2023-01-31T13:20:52.771Z,3.20
2023-01-31T13:23:33.616Z,3.37
2023-01-31T13:26:28.291Z,3.23
2023-01-31T13:29:04.736Z,2.63
2023-01-31T13:31:37.839Z,3.00
2023-01-31T13:34:24.094Z,2.90
2023-01-31T13:37:07.585Z,3.67
2023-01-31T13:39:43.527Z,2.40
2023-01-31T13:42:14.681Z,2.70
2023-01-31T13:44:42.544Z,2.43
2023-01-31T13:47:23.160Z,2.60
2023-01-31T13:49:55.223Z,2.17
2023-01-31T13:52:21.883Z,2.80
2023-01-31T13:54:57.641Z,2.50
2023-01-31T13:57:45.434Z,2.93
2023-01-31T14:00:21.237Z,3.20
2023-01-31T14:03:10.807Z,2.50
2023-01-31T14:05:44.572Z,2.20
2023-01-31T14:08:29.468Z,2.60
2023-01-31T14:10:58.005Z,2.30
2023-01-31T14:13:27.514Z,2.77
2023-01-31T14:15:56.381Z,2.77
2023-01-31T14:18:55.454Z,2.30
2023-01-31T14:21:31.017Z,1.93
2023-01-31T14:24:01.969Z,2.50
2023-01-31T14:26:43.734Z,2.57
2023-01-31T14:29:31.980Z,2.40
2023-01-31T14:31:58.965Z,2.03
2023-01-31T14:34:29.815Z,2.20
2023-01-31T14:37:11.655Z,2.67
2023-01-31T14:40:02.851Z,1.90
2023-01-31T14:42:55.362Z,2.33
2023-01-31T14:45:48.213Z,2.87
2023-01-31T14:48:24.947Z,2.50
2023-01-31T14:51:22.741Z,2.60
2023-01-31T14:54:15.067Z,2.40
2023-01-31T14:56:51.494Z,2.40
2023-01-31T14:59:26.289Z,2.53
2023-01-31T15:01:53.742Z,2.70
2023-01-31T15:04:23.660Z,2.73
2023-01-31T15:06:53.148Z,2.30
2023-01-31T15:09:24.575Z,2.27
2023-01-31T15:11:56.647Z,2.17
2023-01-31T15:14:34.309Z,2.53
2023-01-31T15:17:34.903Z,2.83
2023-01-31T15:20:36.447Z,2.53
2023-01-31T15:23:05.833Z,2.80
2023-01-31T15:25:43.654Z,2.30
2023-01-31T15:28:15.984Z,2.33
2023-01-31T15:30:44.244Z,2.30
2023-01-31T15:33:26.828Z,2.50
2023-01-31T15:36:01.547Z,1.67
2023-01-31T15:38:41.396Z,2.03
2023-01-31T15:41:17.625Z,2.67
2023-01-31T15:43:45.446Z,2.93
2023-01-31T15:46:23.366Z,1.97
2023-01-31T15:48:50.321Z,2.73
2023-01-31T15:51:18.549Z,1.93
2023-01-31T15:53:45.399Z,2.33
2023-01-31T15:56:23.424Z,3.10
2023-01-31T15:58:52.710Z,2.40
2023-01-31T16:01:19.585Z,2.50
2023-01-31T16:03:55.460Z,2.40
2023-01-31T16:06:27.045Z,2.30
2023-01-31T16:09:03.832Z,2.47
2023-01-31T16:11:34.136Z,2.70
2023-01-31T16:14:07.655Z,2.60
2023-01-31T16:16:36.040Z,1.80
2023-01-31T16:19:04.064Z,1.93
2023-01-31T16:21:35.327Z,2.70
2023-01-31T16:24:11.218Z,2.03
2023-01-31T16:26:40.060Z,1.80
2023-01-31T16:29:15.918Z,2.17
2023-01-31T16:31:49.066Z,2.00
2023-01-31T16:34:29.148Z,2.40
2023-01-31T16:37:04.723Z,2.27
2023-01-31T16:39:47.255Z,1.77
2023-01-31T16:42:21.086Z,2.57
2023-01-31T16:44:49.513Z,2.30
2023-01-31T16:47:37.475Z,2.20
2023-01-31T16:50:22.635Z,2.13
2023-01-31T16:53:06.313Z,2.67
2023-01-31T16:55:33.036Z,2.30
2023-01-31T16:57:59.790Z,2.83
2023-01-31T17:00:27.452Z,3.13
2023-01-31T17:02:59.613Z,2.20
2023-01-31T17:05:40.023Z,2.53
2023-01-31T17:08:20.405Z,2.73
2023-01-31T17:10:49.076Z,2.17
2023-01-31T17:13:24.507Z,2.53
2023-01-31T17:15:51.792Z,2.50
2023-01-31T17:18:18.994Z,3.20
2023-01-31T17:20:50.826Z,2.40
2023-01-31T17:23:18.766Z,2.60
2023-01-31T17:25:46.272Z,2.37
2023-01-31T17:28:13.035Z,2.87
2023-01-31T17:30:42.251Z,2.53
2023-01-31T17:33:16.028Z,2.67
2023-01-31T17:35:49.040Z,3.57
2023-01-31T17:38:15.735Z,3.50
2023-01-31T17:40:43.309Z,2.87
2023-01-31T17:43:20.577Z,3.07
2023-01-31T17:45:47.293Z,3.53
2023-01-31T17:48:17.388Z,3.10
2023-01-31T17:50:53.178Z,2.73
2023-01-31T17:53:20.223Z,3.07
2023-01-31T17:55:46.942Z,3.20
2023-01-31T17:58:14.782Z,2.77
2023-01-31T18:00:41.529Z,3.40
2023-01-31T18:03:10.178Z,3.17
2023-01-31T18:05:39.216Z,2.97
2023-01-31T18:08:06.217Z,3.20
2023-01-31T18:10:32.949Z,2.63
2023-01-31T18:12:59.633Z,3.23
2023-01-31T18:15:26.353Z,2.60
2023-01-31T18:17:53.158Z,2.77
2023-01-31T18:20:20.038Z,2.80
2023-01-31T18:22:47.255Z,3.13
2023-01-31T18:25:14.098Z,3.10
2023-01-31T18:27:41.261Z,3.37
2023-01-31T18:30:08.698Z,3.43
2023-01-31T18:32:35.833Z,3.20
2023-01-31T18:35:02.663Z,3.67
2023-01-31T18:37:30.022Z,3.20
2023-01-31T18:39:56.720Z,4.33
2023-01-31T18:42:23.493Z,5.03
2023-01-31T18:44:50.276Z,3.30
2023-01-31T18:47:17.205Z,3.07
2023-01-31T18:49:43.905Z,3.13
2023-01-31T18:52:10.704Z,3.50
2023-01-31T18:54:37.995Z,3.57
2023-01-31T18:57:04.890Z,2.73
2023-01-31T18:59:34.171Z,3.17
2023-01-31T19:02:01.451Z,2.60
2023-01-31T19:04:28.289Z,2.60
2023-01-31T19:06:54.999Z,3.00
2023-01-31T19:09:22.472Z,4.43
2023-01-31T19:11:49.299Z,3.20
2023-01-31T19:14:16.320Z,3.10
2023-01-31T19:16:44.763Z,2.97
2023-01-31T19:19:11.649Z,3.07
2023-01-31T19:21:38.684Z,3.03
2023-01-31T19:24:13.694Z,3.33
2023-01-31T19:26:41.112Z,3.37
2023-01-31T19:29:09.833Z,3.40
2023-01-31T19:31:36.895Z,3.20
2023-01-31T19:34:06.696Z,3.30
2023-01-31T19:36:38.983Z,3.07
2023-01-31T19:39:08.157Z,3.17
2023-01-31T19:41:35.041Z,3.80
2023-01-31T19:44:02.509Z,4.03
2023-01-31T19:46:31.992Z,3.17
2023-01-31T19:48:59.951Z,4.03
2023-01-31T19:51:26.937Z,3.33
2023-01-31T19:54:01.624Z,3.20
2023-01-31T19:56:29.494Z,3.00
2023-01-31T19:58:56.330Z,2.60
2023-01-31T20:01:23.340Z,2.90
2023-01-31T20:03:50.624Z,3.50
2023-01-31T20:06:19.817Z,3.43
2023-01-31T20:08:58.520Z,2.93
2023-01-31T20:11:27.062Z,3.37
2023-01-31T20:13:55.072Z,3.03
2023-01-31T20:16:22.413Z,4.03
2023-01-31T20:18:51.248Z,3.47
2023-01-31T20:21:20.335Z,2.43
2023-01-31T20:23:48.571Z,3.37
2023-01-31T20:26:17.385Z,3.53
2023-01-31T20:28:44.553Z,3.90
2023-01-31T20:31:14.080Z,3.70
2023-01-31T20:33:41.409Z,4.00
2023-01-31T20:36:08.929Z,3.60
2023-01-31T20:38:38.512Z,3.33
2023-01-31T20:41:07.312Z,3.50
2023-01-31T20:43:34.858Z,2.80
2023-01-31T20:46:09.363Z,3.53
2023-01-31T20:48:36.319Z,3.00
2023-01-31T20:51:03.363Z,2.93
2023-01-31T20:53:30.521Z,3.27
2023-01-31T20:56:10.862Z,3.37
2023-01-31T20:58:40.884Z,2.80
2023-01-31T21:01:09.013Z,3.60
2023-01-31T21:03:36.860Z,3.70
2023-01-31T21:06:05.015Z,3.20
2023-01-31T21:08:32.337Z,2.70
2023-01-31T21:10:59.547Z,2.67
2023-01-31T21:13:31.466Z,3.00
2023-01-31T21:16:02.070Z,3.13
2023-01-31T21:18:33.019Z,2.83
2023-01-31T21:21:07.503Z,2.43
2023-01-31T21:23:35.512Z,2.50
2023-01-31T21:26:03.470Z,3.37
2023-01-31T21:28:30.574Z,3.20
2023-01-31T21:31:02.765Z,2.80
2023-01-31T21:33:30.320Z,4.50
2023-01-31T21:35:58.295Z,2.97
2023-01-31T21:38:25.338Z,3.63
2023-01-31T21:41:11.725Z,2.40
2023-01-31T21:43:41.404Z,3.20
2023-01-31T21:46:09.846Z,3.57
2023-01-31T21:48:37.064Z,2.97
2023-01-31T21:51:06.372Z,2.77
2023-01-31T21:53:34.353Z,1.93
2023-01-31T21:56:06.851Z,2.57
2023-01-31T21:58:34.562Z,2.47
2023-01-31T22:01:19.952Z,2.67
2023-01-31T22:03:49.498Z,2.20
2023-01-31T22:06:19.170Z,2.17
2023-01-31T22:08:50.849Z,1.80
2023-01-31T22:11:17.904Z,1.93
2023-01-31T22:13:46.404Z,1.83
2023-01-31T22:16:14.540Z,2.13
2023-01-31T22:18:43.343Z,2.10
2023-01-31T22:21:11.445Z,2.33
2023-01-31T22:23:40.726Z,2.23
2023-01-31T22:26:11.217Z,2.17
2023-01-31T22:28:38.871Z,2.33
2023-01-31T22:31:07.704Z,2.10
2023-01-31T22:33:37.359Z,1.60
2023-01-31T22:36:05.110Z,2.10
2023-01-31T22:38:32.136Z,1.73
2023-01-31T22:41:00.887Z,2.17
2023-01-31T22:43:28.673Z,2.23
2023-01-31T22:45:57.200Z,3.47
2023-01-31T22:48:25.456Z,2.30
2023-01-31T22:51:00.707Z,2.43
2023-01-31T22:53:31.717Z,2.30
2023-01-31T22:56:04.140Z,2.50
2023-01-31T22:58:31.220Z,2.10
2023-01-31T23:00:58.129Z,2.30
2023-01-31T23:03:25.929Z,2.83
2023-01-31T23:05:52.749Z,2.13
2023-01-31T23:08:19.520Z,2.30
2023-01-31T23:10:46.734Z,2.10
2023-01-31T23:13:13.537Z,2.70
2023-01-31T23:15:40.569Z,2.50
2023-01-31T23:18:07.413Z,2.20
2023-01-31T23:20:34.290Z,2.40
2023-01-31T23:23:01.044Z,2.73
2023-01-31T23:25:29.938Z,2.60
2023-01-31T23:27:57.716Z,2.93
2023-01-31T23:30:25.009Z,2.90
2023-01-31T23:32:52.316Z,2.70
2023-01-31T23:35:19.648Z,2.93
2023-01-31T23:37:46.703Z,1.87
2023-01-31T23:40:13.527Z,2.10
2023-01-31T23:42:40.301Z,2.93
2023-01-31T23:45:07.580Z,3.00
2023-01-31T23:47:34.489Z,3.17
2023-01-31T23:50:01.201Z,2.47
2023-01-31T23:52:28.152Z,2.63
2023-01-31T23:54:54.906Z,2.33
2023-01-31T23:57:21.671Z,3.03
2023-01-31T23:59:48.477Z,1.63
